Terminal Aerodrome Forecast
Issued by NWS

Home | Current Version | Previous Version | Text Only | Print | Product List | Glossary On
Versions: 1 2 3 4 5 6 7 8 9 10 11 12
000
FTUS46 KLOX 220500 RRA
TAFBUR
TAF
KBUR 220552Z 2206/2306 34006KT P6SM BKN200 WS010/01030KT
     FM221200 VRB03KT P6SM BKN200
     FM221700 04006KT P6SM BKN200
     FM222200 17008KT P6SM SCT200
     FM230300 01006KT P6SM SKC=

USA.gov is the U.S. government's official web portal to all federal, state and local government web resources and services.